createdAt,value
2023-04-18T00:02:20.427Z,14.60
2023-04-18T00:04:47.848Z,11.82
2023-04-18T00:07:17.397Z,11.77
2023-04-18T00:09:45.620Z,12.07
2023-04-18T00:12:12.712Z,12.88
2023-04-18T00:14:41.059Z,12.35
2023-04-18T00:17:09.198Z,11.15
2023-04-18T00:19:43.260Z,11.48
2023-04-18T00:22:11.381Z,10.60
2023-04-18T00:24:38.552Z,9.75
2023-04-18T00:27:06.165Z,9.43
2023-04-18T00:29:33.421Z,10.55
2023-04-18T00:32:01.764Z,10.50
2023-04-18T00:34:30.944Z,10.98
2023-04-18T00:36:58.090Z,10.43
2023-04-18T00:39:25.752Z,11.10
2023-04-18T00:41:53.809Z,12.30
2023-04-18T00:44:20.916Z,11.48
2023-04-18T00:46:48.299Z,10.60
2023-04-18T00:49:15.685Z,11.05
2023-04-18T00:51:42.847Z,11.90
2023-04-18T00:54:13.388Z,9.50
2023-04-18T00:56:40.783Z,10.20
2023-04-18T00:59:07.853Z,11.38
2023-04-18T01:01:34.957Z,12.32
2023-04-18T01:04:02.870Z,13.18
2023-04-18T01:06:30.025Z,12.25
2023-04-18T01:08:57.112Z,12.45
2023-04-18T01:11:25.234Z,12.95
2023-04-18T01:14:06.006Z,12.68
2023-04-18T01:16:37.213Z,14.95
2023-04-18T01:19:04.434Z,14.60
2023-04-18T01:21:33.875Z,15.57
2023-04-18T01:24:07.857Z,15.27
2023-04-18T01:26:34.910Z,12.95
2023-04-18T01:29:05.231Z,13.32
2023-04-18T01:31:36.610Z,15.38
2023-04-18T01:34:04.454Z,13.68
2023-04-18T01:36:32.028Z,13.32
2023-04-18T01:38:59.708Z,14.25
2023-04-18T01:41:29.087Z,13.43
2023-04-18T01:43:56.102Z,12.75
2023-04-18T01:46:23.267Z,13.82
2023-04-18T01:48:50.747Z,15.90
2023-04-18T01:51:21.689Z,12.48
2023-04-18T01:53:48.758Z,13.98
2023-04-18T01:56:15.800Z,13.00
2023-04-18T01:58:42.782Z,14.18
2023-04-18T02:01:09.857Z,13.70
2023-04-18T02:03:37.506Z,12.23
2023-04-18T02:06:05.146Z,13.73
2023-04-18T02:08:35.683Z,15.07
2023-04-18T02:11:05.493Z,14.15
2023-04-18T02:13:32.587Z,14.38
2023-04-18T02:15:59.895Z,13.95
2023-04-18T02:18:27.530Z,13.57
2023-04-18T02:20:54.555Z,13.52
2023-04-18T02:23:25.752Z,13.50
2023-04-18T02:25:55.673Z,13.75
2023-04-18T02:28:25.819Z,15.00
2023-04-18T02:30:55.980Z,13.48
2023-04-18T02:33:23.826Z,13.48
2023-04-18T02:35:52.727Z,13.73
2023-04-18T02:38:20.834Z,15.82
2023-04-18T02:40:52.327Z,20.85
2023-04-18T02:43:20.942Z,15.95
2023-04-18T02:45:48.076Z,15.52
2023-04-18T02:48:15.077Z,15.32
2023-04-18T02:50:42.222Z,14.90
2023-04-18T02:53:10.486Z,16.08
2023-04-18T02:55:51.351Z,16.23
2023-04-18T02:58:19.854Z,14.18
2023-04-18T03:01:08.898Z,16.17
2023-04-18T03:03:53.659Z,15.13
2023-04-18T03:06:37.382Z,15.38
2023-04-18T03:09:04.692Z,15.40
2023-04-18T03:11:34.262Z,15.50
2023-04-18T03:14:02.880Z,17.15
2023-04-18T03:16:37.585Z,18.38
2023-04-18T03:19:06.829Z,15.90
2023-04-18T03:21:34.399Z,17.70
2023-04-18T03:24:01.588Z,18.92
2023-04-18T03:26:28.698Z,18.00
2023-04-18T03:28:57.042Z,17.75
2023-04-18T03:31:25.558Z,19.17
2023-04-18T03:33:52.803Z,18.10
2023-04-18T03:36:25.287Z,18.05
2023-04-18T03:38:55.232Z,16.27
2023-04-18T03:41:22.440Z,16.65
2023-04-18T03:43:49.453Z,18.15
2023-04-18T03:46:17.727Z,17.48
2023-04-18T03:48:45.579Z,18.52
2023-04-18T03:51:12.605Z,18.48
2023-04-18T03:53:40.548Z,16.67
2023-04-18T03:56:07.727Z,23.70
2023-04-18T03:58:47.597Z,19.40
2023-04-18T04:01:14.802Z,18.77
2023-04-18T04:03:41.926Z,18.38
2023-04-18T04:06:09.409Z,20.45
2023-04-18T04:08:36.395Z,21.10
2023-04-18T04:11:03.626Z,19.75
2023-04-18T04:13:30.939Z,18.30
2023-04-18T04:15:58.512Z,16.05
2023-04-18T04:18:31.023Z,21.75
2023-04-18T04:20:59.929Z,16.35
2023-04-18T04:23:41.982Z,17.15
2023-04-18T04:26:11.205Z,17.63
2023-04-18T04:28:46.804Z,16.23
2023-04-18T04:31:18.810Z,18.02
2023-04-18T04:33:46.671Z,15.85
2023-04-18T04:36:19.378Z,16.38
2023-04-18T04:38:49.049Z,15.80
2023-04-18T04:41:17.756Z,19.60
2023-04-18T04:43:46.821Z,17.13
2023-04-18T04:46:20.074Z,18.17
2023-04-18T04:48:49.788Z,18.30
2023-04-18T04:51:16.811Z,17.83
2023-04-18T04:53:43.878Z,16.58
2023-04-18T04:56:11.076Z,16.55
2023-04-18T04:58:47.728Z,17.40
2023-04-18T05:01:41.147Z,18.60
2023-04-18T05:04:08.891Z,21.05
2023-04-18T05:06:37.429Z,19.63
2023-04-18T05:09:06.062Z,18.17
2023-04-18T05:11:33.555Z,16.73
2023-04-18T05:14:00.715Z,19.08
2023-04-18T05:16:27.892Z,19.10
2023-04-18T05:18:55.557Z,17.90
2023-04-18T05:21:24.674Z,17.30
2023-04-18T05:23:51.863Z,18.08
2023-04-18T05:26:19.023Z,17.85
2023-04-18T05:28:46.295Z,16.80
2023-04-18T05:31:13.559Z,17.75
2023-04-18T05:33:40.730Z,17.52
2023-04-18T05:36:09.242Z,19.42
2023-04-18T05:38:36.380Z,18.92
2023-04-18T05:41:06.629Z,18.38
2023-04-18T05:43:33.944Z,19.95
2023-04-18T05:46:01.132Z,18.38
2023-04-18T05:48:28.636Z,20.95
2023-04-18T05:50:55.829Z,17.35
2023-04-18T05:53:23.472Z,20.15
2023-04-18T05:55:50.581Z,18.73
2023-04-18T05:58:17.623Z,17.65
2023-04-18T06:00:44.753Z,17.38
2023-04-18T06:03:12.022Z,19.52
2023-04-18T06:05:41.123Z,20.42
2023-04-18T06:08:08.812Z,19.67
2023-04-18T06:10:37.762Z,23.17
2023-04-18T06:13:09.013Z,20.80
2023-04-18T06:15:56.148Z,18.55
2023-04-18T06:18:26.116Z,19.15
2023-04-18T06:20:54.360Z,19.50
2023-04-18T06:23:21.891Z,20.13
2023-04-18T06:25:49.006Z,21.55
2023-04-18T06:28:16.205Z,21.38
2023-04-18T06:30:43.385Z,22.10
2023-04-18T06:33:11.105Z,23.85
2023-04-18T06:35:38.150Z,24.52
2023-04-18T06:38:05.776Z,27.10
2023-04-18T06:40:32.900Z,29.42
2023-04-18T06:42:59.948Z,27.67
2023-04-18T06:45:31.097Z,26.02
2023-04-18T06:48:00.255Z,26.02
2023-04-18T06:50:27.342Z,30.35
2023-04-18T06:52:54.394Z,30.05
2023-04-18T06:55:25.864Z,34.33
2023-04-18T06:57:54.718Z,29.52
2023-04-18T07:00:22.306Z,31.42
2023-04-18T07:02:49.468Z,28.38
2023-04-18T07:05:16.691Z,30.48
2023-04-18T07:07:43.793Z,26.00
2023-04-18T07:10:14.556Z,26.60
2023-04-18T07:12:43.574Z,26.50
2023-04-18T07:15:11.111Z,26.63
2023-04-18T07:17:39.001Z,26.58
2023-04-18T07:20:07.382Z,28.42
2023-04-18T07:22:34.553Z,25.85
2023-04-18T07:25:06.667Z,24.27
2023-04-18T07:27:39.885Z,26.02
2023-04-18T07:30:08.813Z,25.35
2023-04-18T07:32:36.340Z,24.83
2023-04-18T07:35:04.967Z,22.80
2023-04-18T07:37:32.995Z,26.40
2023-04-18T07:40:00.169Z,24.63
2023-04-18T07:42:28.866Z,25.85
2023-04-18T07:44:59.916Z,25.90
2023-04-18T07:47:29.916Z,26.27
2023-04-18T07:49:58.765Z,23.77
2023-04-18T07:52:28.174Z,24.08
2023-04-18T07:54:55.587Z,25.67
2023-04-18T07:57:25.065Z,24.73
2023-04-18T07:59:53.960Z,25.15
2023-04-18T08:02:25.357Z,23.98
2023-04-18T08:04:59.376Z,27.67
2023-04-18T08:07:29.069Z,25.58
2023-04-18T08:09:56.105Z,23.98
2023-04-18T08:12:30.227Z,25.40
2023-04-18T08:14:57.244Z,27.00
2023-04-18T08:17:24.515Z,24.38
2023-04-18T08:19:51.865Z,25.38
2023-04-18T08:22:18.900Z,22.95
2023-04-18T08:25:03.240Z,23.73
2023-04-18T08:27:32.041Z,23.95
2023-04-18T08:30:04.804Z,20.20
2023-04-18T08:32:32.540Z,21.40
2023-04-18T08:35:00.028Z,22.70
2023-04-18T08:37:28.033Z,20.70
2023-04-18T08:39:55.915Z,19.95
2023-04-18T08:42:23.634Z,19.60
2023-04-18T08:44:51.453Z,20.75
2023-04-18T08:47:19.290Z,19.08
2023-04-18T08:49:47.172Z,17.40
2023-04-18T08:52:14.625Z,18.70
2023-04-18T08:54:42.401Z,15.43
2023-04-18T08:57:12.581Z,16.13
2023-04-18T08:59:40.214Z,17.23
2023-04-18T09:02:09.020Z,16.08
2023-04-18T09:04:49.143Z,14.52
2023-04-18T09:07:17.009Z,17.67
2023-04-18T09:09:50.908Z,13.77
2023-04-18T09:12:22.371Z,16.02
2023-04-18T09:14:51.766Z,15.30
2023-04-18T09:17:42.502Z,17.23
2023-04-18T09:20:10.897Z,16.13
2023-04-18T09:22:54.383Z,14.18
2023-04-18T09:25:35.111Z,13.80
2023-04-18T09:28:03.053Z,15.50
2023-04-18T09:30:34.815Z,14.60
2023-04-18T09:33:06.388Z,14.13
2023-04-18T09:35:34.061Z,14.63
2023-04-18T09:38:01.306Z,15.88
2023-04-18T09:40:28.430Z,15.43
2023-04-18T09:42:55.874Z,14.20
2023-04-18T09:45:23.915Z,15.75
2023-04-18T09:47:51.525Z,13.38
2023-04-18T09:50:22.739Z,14.00
2023-04-18T09:52:50.269Z,13.93
2023-04-18T09:55:20.473Z,16.13
2023-04-18T09:57:48.325Z,11.77
2023-04-18T10:00:24.642Z,14.35
2023-04-18T10:02:58.669Z,13.75
2023-04-18T10:05:28.383Z,15.10
2023-04-18T10:07:58.961Z,16.10
2023-04-18T10:10:27.304Z,17.52
2023-04-18T10:12:56.810Z,15.25
2023-04-18T10:15:26.377Z,14.27
2023-04-18T10:20:33.945Z,12.82
2023-04-18T10:23:21.625Z,15.90
2023-04-18T10:25:49.602Z,13.20
2023-04-18T10:28:17.260Z,14.73
2023-04-18T10:30:44.415Z,14.00
2023-04-18T10:35:58.314Z,15.02
2023-04-18T10:38:45.710Z,17.40
2023-04-18T10:41:25.834Z,12.73
2023-04-18T10:44:15.098Z,11.95
2023-04-18T10:46:52.555Z,11.43
2023-04-18T10:49:27.820Z,12.18
2023-04-18T10:52:01.060Z,11.57
2023-04-18T10:54:28.919Z,10.45
2023-04-18T10:56:57.416Z,9.43
2023-04-18T10:59:25.373Z,14.23
2023-04-18T11:02:30.034Z,10.93
2023-04-18T11:05:07.032Z,10.80
2023-04-18T11:07:48.856Z,10.05
2023-04-18T11:10:26.312Z,10.13
2023-04-18T11:12:54.811Z,10.57
2023-04-18T11:15:23.549Z,8.93
2023-04-18T11:18:01.554Z,10.98
2023-04-18T11:20:29.627Z,12.13
2023-04-18T11:23:00.083Z,9.98
2023-04-18T11:25:31.797Z,10.55
2023-04-18T11:28:00.379Z,9.38
2023-04-18T11:30:27.720Z,11.80
2023-04-18T11:32:56.063Z,9.43
2023-04-18T11:35:24.897Z,9.98
2023-04-18T11:37:54.475Z,9.32
2023-04-18T11:40:21.674Z,13.10
2023-04-18T11:42:48.969Z,10.82
2023-04-18T11:45:16.461Z,10.05
2023-04-18T11:47:43.709Z,10.45
2023-04-18T11:50:11.983Z,11.32
2023-04-18T11:52:45.338Z,11.10
2023-04-18T11:55:13.837Z,9.15
2023-04-18T11:57:42.346Z,12.45
2023-04-18T12:00:12.201Z,8.60
2023-04-18T12:02:43.890Z,13.05
2023-04-18T12:05:12.164Z,10.13
2023-04-18T12:07:40.802Z,14.48
2023-04-18T12:10:19.998Z,9.57
2023-04-18T12:12:54.106Z,9.40
2023-04-18T12:15:24.050Z,8.43
2023-04-18T12:20:25.061Z,9.63
2023-04-18T12:22:54.997Z,11.07
2023-04-18T12:25:29.101Z,9.88
2023-04-18T12:28:15.098Z,10.10
2023-04-18T12:30:42.282Z,8.52
2023-04-18T12:33:09.362Z,7.97
2023-04-18T12:35:36.910Z,9.52
2023-04-18T12:38:05.918Z,8.10
2023-04-18T12:40:33.461Z,8.57
2023-04-18T12:43:03.414Z,9.60
2023-04-18T12:45:31.224Z,10.52
2023-04-18T12:47:58.385Z,9.43
2023-04-18T12:50:26.365Z,9.90
2023-04-18T12:52:54.742Z,7.70
2023-04-18T12:55:22.828Z,10.40
2023-04-18T12:57:51.017Z,8.15
2023-04-18T13:00:18.351Z,6.60
2023-04-18T13:02:46.082Z,7.25
2023-04-18T13:05:14.310Z,6.95
2023-04-18T13:07:43.065Z,8.32
2023-04-18T13:10:13.753Z,8.35
2023-04-18T13:12:41.504Z,9.38
2023-04-18T13:15:11.294Z,6.75
2023-04-18T13:17:39.339Z,7.60
2023-04-18T13:20:12.412Z,6.32
2023-04-18T13:22:40.206Z,7.93
2023-04-18T13:25:08.339Z,9.43
2023-04-18T13:27:35.908Z,5.90
2023-04-18T13:30:04.905Z,9.07
2023-04-18T13:32:33.519Z,9.00
2023-04-18T13:35:07.898Z,5.88
2023-04-18T13:37:36.175Z,7.72
2023-04-18T13:40:10.124Z,9.20
2023-04-18T13:42:38.071Z,7.38
2023-04-18T13:45:05.553Z,7.60
2023-04-18T13:47:33.248Z,5.82
2023-04-18T13:50:04.107Z,8.90
2023-04-18T13:52:31.661Z,5.68
2023-04-18T13:54:59.179Z,6.88
2023-04-18T13:57:32.131Z,6.75
2023-04-18T13:59:59.407Z,5.30
2023-04-18T14:02:27.193Z,6.85
2023-04-18T14:04:56.104Z,7.88
2023-04-18T14:07:23.286Z,7.07
2023-04-18T14:09:52.061Z,6.70
2023-04-18T14:12:21.084Z,8.57
2023-04-18T14:14:48.095Z,5.93
2023-04-18T14:17:15.367Z,8.60
2023-04-18T14:19:42.827Z,6.45
2023-04-18T14:22:09.977Z,8.40
2023-04-18T14:24:37.118Z,6.68
2023-04-18T14:27:04.778Z,7.60
2023-04-18T14:29:34.916Z,6.70
2023-04-18T14:32:10.305Z,7.82
2023-04-18T14:34:38.782Z,5.85
2023-04-18T14:37:06.520Z,8.15
2023-04-18T14:39:36.133Z,7.20
2023-04-18T14:42:05.428Z,7.18
2023-04-18T14:44:34.083Z,6.75
2023-04-18T14:47:02.151Z,6.07
2023-04-18T14:49:29.336Z,7.20
2023-04-18T14:51:58.205Z,6.95
2023-04-18T14:54:26.096Z,6.95
2023-04-18T14:56:53.311Z,5.47
2023-04-18T14:59:20.656Z,5.05
2023-04-18T15:01:48.006Z,4.07
2023-04-18T15:04:15.475Z,5.75
2023-04-18T15:06:42.841Z,5.85
2023-04-18T15:09:09.997Z,6.72
2023-04-18T15:11:38.039Z,4.90
2023-04-18T15:14:05.197Z,6.53
2023-04-18T15:16:32.520Z,5.00
2023-04-18T15:19:00.430Z,7.13
2023-04-18T15:21:27.714Z,6.65
2023-04-18T15:23:54.869Z,6.40
2023-04-18T15:26:22.086Z,5.47
2023-04-18T15:28:49.221Z,5.63
2023-04-18T15:31:19.267Z,4.40
2023-04-18T15:33:46.626Z,5.10
2023-04-18T15:36:13.698Z,7.68
2023-04-18T15:38:40.746Z,5.78
2023-04-18T15:41:08.738Z,7.18
2023-04-18T15:43:36.312Z,6.65
2023-04-18T15:46:07.055Z,5.90
2023-04-18T15:48:34.862Z,6.55
2023-04-18T15:51:02.341Z,7.45
2023-04-18T15:53:31.905Z,5.90
2023-04-18T15:56:01.840Z,6.53
2023-04-18T15:58:30.754Z,8.30
2023-04-18T16:00:57.904Z,9.05
2023-04-18T16:03:26.335Z,6.30
2023-04-18T16:05:53.528Z,12.32
2023-04-18T16:08:20.799Z,7.45
2023-04-18T16:10:48.019Z,7.40
2023-04-18T16:13:15.349Z,7.85
2023-04-18T16:15:42.866Z,8.18
2023-04-18T16:18:10.419Z,7.10
2023-04-18T16:20:37.480Z,7.90
2023-04-18T16:23:04.639Z,8.70
2023-04-18T16:25:31.955Z,7.30
2023-04-18T16:28:00.852Z,9.00
2023-04-18T16:30:27.912Z,6.55
2023-04-18T16:32:55.883Z,9.73
2023-04-18T16:35:23.885Z,8.50
2023-04-18T16:37:50.973Z,8.60
2023-04-18T16:40:18.070Z,6.55
2023-04-18T16:42:45.327Z,8.38
2023-04-18T16:45:12.364Z,6.93
2023-04-18T16:47:43.123Z,9.40
2023-04-18T16:50:10.502Z,9.15
2023-04-18T16:52:37.738Z,8.10
2023-04-18T16:55:05.227Z,10.07
2023-04-18T16:57:32.370Z,10.82
2023-04-18T17:00:02.142Z,8.52
2023-04-18T17:02:31.863Z,9.15
2023-04-18T17:04:59.026Z,7.18
2023-04-18T17:07:26.948Z,9.38
2023-04-18T17:09:54.793Z,8.77
2023-04-18T17:12:21.886Z,11.27
2023-04-18T17:14:49.965Z,10.70
2023-04-18T17:17:16.980Z,10.68
2023-04-18T17:19:44.022Z,10.30
2023-04-18T17:22:11.065Z,10.55
2023-04-18T17:24:39.241Z,13.05
2023-04-18T17:27:06.343Z,9.15
2023-04-18T17:29:39.118Z,9.38
2023-04-18T17:32:06.309Z,9.90
2023-04-18T17:34:36.890Z,9.02
2023-04-18T17:37:06.774Z,10.40
2023-04-18T17:39:33.887Z,10.40
2023-04-18T17:42:04.185Z,11.45
2023-04-18T17:44:31.714Z,10.15
2023-04-18T17:47:01.951Z,11.32
2023-04-18T17:49:34.766Z,13.93
2023-04-18T17:52:04.736Z,16.55
2023-04-18T17:54:32.484Z,20.42
2023-04-18T17:56:59.941Z,21.55
2023-04-18T17:59:29.118Z,24.13
2023-04-18T18:01:56.747Z,21.05
2023-04-18T18:04:26.465Z,22.27
2023-04-18T18:06:58.777Z,21.00
2023-04-18T18:09:25.861Z,31.05
2023-04-18T18:11:55.383Z,29.25
2023-04-18T18:14:23.626Z,25.48
2023-04-18T18:16:50.921Z,31.33
2023-04-18T18:19:18.112Z,24.55
2023-04-18T18:21:45.303Z,21.25
2023-04-18T18:24:12.734Z,17.60
2023-04-18T18:26:39.864Z,21.02
2023-04-18T18:29:11.167Z,20.80
2023-04-18T18:31:38.802Z,20.20
2023-04-18T18:34:07.030Z,18.70
2023-04-18T18:36:34.969Z,18.08
2023-04-18T18:39:06.087Z,21.15
2023-04-18T18:41:33.979Z,19.90
2023-04-18T18:44:02.806Z,21.88
2023-04-18T18:46:29.875Z,22.88
2023-04-18T18:48:57.289Z,24.58
2023-04-18T18:51:24.998Z,24.23
2023-04-18T18:53:51.978Z,30.27
2023-04-18T18:56:19.426Z,28.48
2023-04-18T18:58:46.957Z,27.63
2023-04-18T19:01:14.182Z,25.58
2023-04-18T19:03:41.750Z,26.63
2023-04-18T19:06:13.277Z,24.58
2023-04-18T19:08:40.412Z,25.42
2023-04-18T19:11:07.801Z,25.02
2023-04-18T19:13:35.023Z,25.85
2023-04-18T19:16:02.969Z,24.50
2023-04-18T19:18:32.153Z,27.00
2023-04-18T19:21:08.293Z,27.67
2023-04-18T19:23:37.199Z,29.73
2023-04-18T19:26:08.130Z,42.60
2023-04-18T19:28:36.238Z,26.17
2023-04-18T19:31:03.956Z,25.15
2023-04-18T19:33:31.155Z,19.98
2023-04-18T19:35:58.838Z,18.88
2023-04-18T19:38:28.704Z,18.85
2023-04-18T19:40:55.811Z,19.52
2023-04-18T19:43:23.030Z,22.60
2023-04-18T19:45:54.486Z,21.10
2023-04-18T19:48:22.916Z,21.13
2023-04-18T19:50:50.130Z,22.02
2023-04-18T19:53:18.982Z,21.17
2023-04-18T19:55:46.243Z,23.20
2023-04-18T19:58:49.103Z,21.63
2023-04-18T20:01:17.905Z,21.42
2023-04-18T20:03:46.060Z,20.20
2023-04-18T20:06:13.602Z,19.83
2023-04-18T20:08:45.825Z,19.88
2023-04-18T20:11:14.032Z,19.38
2023-04-18T20:13:41.652Z,21.60
2023-04-18T20:16:09.039Z,21.05
2023-04-18T20:18:40.961Z,22.40
2023-04-18T20:21:09.390Z,20.45
2023-04-18T20:23:36.654Z,27.13
2023-04-18T20:26:04.234Z,23.95
2023-04-18T20:28:31.974Z,22.42
2023-04-18T20:30:59.719Z,23.15
2023-04-18T20:33:27.550Z,22.48
2023-04-18T20:35:54.900Z,23.15
2023-04-18T20:38:26.203Z,27.60
2023-04-18T20:40:54.077Z,24.65
2023-04-18T20:43:22.592Z,28.70
2023-04-18T20:45:53.918Z,27.05
2023-04-18T20:48:21.237Z,27.88
2023-04-18T20:50:54.262Z,30.27
2023-04-18T20:53:22.770Z,31.63
2023-04-18T20:55:50.746Z,29.42
2023-04-18T20:58:19.814Z,29.33
2023-04-18T21:00:48.271Z,26.88
2023-04-18T21:03:16.274Z,25.27
2023-04-18T21:05:43.839Z,26.83
2023-04-18T21:08:11.424Z,23.65
2023-04-18T21:10:39.803Z,23.88
2023-04-18T21:13:07.140Z,24.02
2023-04-18T21:15:35.803Z,25.00
2023-04-18T21:18:03.067Z,25.38
2023-04-18T21:20:31.446Z,29.55
2023-04-18T21:22:58.491Z,27.20
2023-04-18T21:25:25.607Z,24.70
2023-04-18T21:27:52.718Z,24.77
2023-04-18T21:30:20.143Z,25.15
2023-04-18T21:32:49.233Z,22.02
2023-04-18T21:35:20.186Z,27.90
2023-04-18T21:37:51.788Z,26.70
2023-04-18T21:40:18.926Z,23.58
2023-04-18T21:42:46.835Z,23.38
2023-04-18T21:45:17.279Z,25.60
2023-04-18T21:47:44.380Z,25.92
2023-04-18T21:50:11.589Z,24.08
2023-04-18T21:52:39.361Z,22.73
2023-04-18T21:55:06.565Z,24.10
2023-04-18T21:57:37.178Z,26.10
2023-04-18T22:00:08.424Z,24.33
2023-04-18T22:02:37.878Z,25.75
2023-04-18T22:05:07.554Z,26.05
2023-04-18T22:07:40.811Z,26.23
2023-04-18T22:10:18.411Z,23.05
2023-04-18T22:12:45.800Z,26.55
2023-04-18T22:15:12.835Z,26.45
2023-04-18T22:17:41.761Z,28.85
2023-04-18T22:20:10.789Z,24.98
2023-04-18T22:22:37.806Z,29.02
2023-04-18T22:25:07.831Z,27.02
2023-04-18T22:27:34.889Z,23.92
2023-04-18T22:30:02.967Z,25.83
2023-04-18T22:32:31.083Z,24.13
2023-04-18T22:34:58.307Z,28.58
2023-04-18T22:37:25.486Z,24.58
2023-04-18T22:39:52.512Z,25.98
2023-04-18T22:42:19.618Z,22.42
2023-04-18T22:44:47.336Z,23.67
2023-04-18T22:47:14.387Z,20.08
2023-04-18T22:49:41.997Z,21.88
2023-04-18T22:52:08.997Z,21.35
2023-04-18T22:54:39.805Z,23.83
2023-04-18T22:57:06.866Z,19.05
2023-04-18T22:59:34.669Z,21.13
2023-04-18T23:02:02.442Z,25.60
2023-04-18T23:04:32.442Z,21.65
2023-04-18T23:06:59.588Z,24.67
2023-04-18T23:09:27.822Z,20.50
2023-04-18T23:11:54.885Z,20.90
2023-04-18T23:14:22.588Z,22.25
2023-04-18T23:16:52.566Z,21.45
2023-04-18T23:19:19.704Z,22.00
2023-04-18T23:21:48.975Z,21.80
2023-04-18T23:24:16.846Z,23.63
2023-04-18T23:26:43.908Z,21.17
2023-04-18T23:29:10.859Z,24.38
2023-04-18T23:31:37.863Z,24.00
2023-04-18T23:34:05.059Z,23.48
2023-04-18T23:36:33.017Z,25.50
2023-04-18T23:39:00.825Z,26.42
2023-04-18T23:41:27.928Z,24.70
2023-04-18T23:43:55.519Z,25.50
2023-04-18T23:46:22.740Z,25.88
2023-04-18T23:48:49.977Z,22.65
2023-04-18T23:51:16.989Z,27.05
2023-04-18T23:53:44.095Z,24.50
2023-04-18T23:56:11.182Z,26.30
2023-04-18T23:58:38.134Z,25.55
